sensor_id;sensor_type;location;lat;lon;timestamp;pressure;altitude;pressure_sealevel;temperature;humidity
51829;BME280;37881;48.024;8.774;2023-04-24T00:02:08;93019.56;;;8.64;100.00
51829;BME280;37881;48.024;8.774;2023-04-24T00:04:37;93008.53;;;8.67;100.00
51829;BME280;37881;48.024;8.774;2023-04-24T00:07:07;93016.75;;;8.67;100.00
51829;BME280;37881;48.024;8.774;2023-04-24T00:09:33;93008.00;;;8.56;100.00
51829;BME280;37881;48.024;8.774;2023-04-24T00:12:00;93000.97;;;8.55;100.00
51829;BME280;37881;48.024;8.774;2023-04-24T00:14:28;93000.22;;;8.54;100.00
51829;BME280;37881;48.024;8.774;2023-04-24T00:16:55;92998.25;;;8.55;100.00
51829;BME280;37881;48.024;8.774;2023-04-24T00:19:22;92996.53;;;8.61;100.00
51829;BME280;37881;48.024;8.774;2023-04-24T00:21:49;92995.44;;;8.58;100.00
51829;BME280;37881;48.024;8.774;2023-04-24T00:24:16;93000.16;;;8.58;100.00
51829;BME280;37881;48.024;8.774;2023-04-24T00:26:43;92992.78;;;8.55;100.00
51829;BME280;37881;48.024;8.774;2023-04-24T00:29:10;92998.59;;;8.57;100.00
51829;BME280;37881;48.024;8.774;2023-04-24T00:31:37;92996.31;;;8.55;100.00
51829;BME280;37881;48.024;8.774;2023-04-24T00:34:04;92991.94;;;8.58;100.00
51829;BME280;37881;48.024;8.774;2023-04-24T00:36:31;92997.41;;;8.58;100.00
51829;BME280;37881;48.024;8.774;2023-04-24T00:38:58;92985.72;;;8.57;100.00
51829;BME280;37881;48.024;8.774;2023-04-24T00:41:25;92990.72;;;8.59;100.00
51829;BME280;37881;48.024;8.774;2023-04-24T00:43:52;92980.59;;;8.59;100.00
51829;BME280;37881;48.024;8.774;2023-04-24T00:46:19;92983.38;;;8.56;100.00
51829;BME280;37881;48.024;8.774;2023-04-24T00:48:47;92979.69;;;8.46;100.00
51829;BME280;37881;48.024;8.774;2023-04-24T00:51:13;92982.84;;;8.45;100.00
51829;BME280;37881;48.024;8.774;2023-04-24T00:53:41;92983.72;;;8.42;100.00
51829;BME280;37881;48.024;8.774;2023-04-24T00:56:07;92971.56;;;8.43;100.00
51829;BME280;37881;48.024;8.774;2023-04-24T00:58:34;92986.28;;;8.49;100.00
51829;BME280;37881;48.024;8.774;2023-04-24T01:01:01;92975.69;;;8.51;100.00
51829;BME280;37881;48.024;8.774;2023-04-24T01:03:30;92980.38;;;8.50;100.00
51829;BME280;37881;48.024;8.774;2023-04-24T01:06:01;92973.81;;;8.48;100.00
51829;BME280;37881;48.024;8.774;2023-04-24T01:08:28;92971.56;;;8.43;100.00
51829;BME280;37881;48.024;8.774;2023-04-24T01:10:56;92966.16;;;8.39;100.00
51829;BME280;37881;48.024;8.774;2023-04-24T01:13:23;92964.16;;;8.43;100.00
51829;BME280;37881;48.024;8.774;2023-04-24T01:15:50;92972.06;;;8.37;100.00
51829;BME280;37881;48.024;8.774;2023-04-24T01:18:17;92980.25;;;8.37;100.00
51829;BME280;37881;48.024;8.774;2023-04-24T01:20:44;92982.31;;;8.33;100.00
51829;BME280;37881;48.024;8.774;2023-04-24T01:23:11;92974.31;;;8.23;100.00
51829;BME280;37881;48.024;8.774;2023-04-24T01:25:38;92975.34;;;8.29;100.00
51829;BME280;37881;48.024;8.774;2023-04-24T01:28:05;92972.94;;;8.14;100.00
51829;BME280;37881;48.024;8.774;2023-04-24T01:30:33;92975.31;;;8.12;100.00
51829;BME280;37881;48.024;8.774;2023-04-24T01:33:00;92972.25;;;8.10;100.00
51829;BME280;37881;48.024;8.774;2023-04-24T01:35:26;92965.66;;;8.08;100.00
51829;BME280;37881;48.024;8.774;2023-04-24T01:37:54;92970.50;;;8.00;100.00
51829;BME280;37881;48.024;8.774;2023-04-24T01:40:21;92979.28;;;7.91;100.00
51829;BME280;37881;48.024;8.774;2023-04-24T01:42:47;92964.84;;;7.91;100.00
51829;BME280;37881;48.024;8.774;2023-04-24T01:45:14;92976.97;;;7.90;100.00
51829;BME280;37881;48.024;8.774;2023-04-24T01:47:41;92988.22;;;7.92;100.00
51829;BME280;37881;48.024;8.774;2023-04-24T01:50:08;92976.47;;;7.95;100.00
51829;BME280;37881;48.024;8.774;2023-04-24T01:52:35;92979.22;;;7.95;100.00
51829;BME280;37881;48.024;8.774;2023-04-24T01:55:03;92978.41;;;7.94;100.00
51829;BME280;37881;48.024;8.774;2023-04-24T01:57:31;92990.19;;;7.91;100.00
51829;BME280;37881;48.024;8.774;2023-04-24T01:59:58;92982.91;;;7.85;100.00
51829;BME280;37881;48.024;8.774;2023-04-24T02:02:25;92992.66;;;7.86;100.00
51829;BME280;37881;48.024;8.774;2023-04-24T02:04:54;92987.59;;;7.84;100.00
51829;BME280;37881;48.024;8.774;2023-04-24T02:07:21;92982.72;;;7.75;100.00
51829;BME280;37881;48.024;8.774;2023-04-24T02:09:48;92994.47;;;7.72;100.00
51829;BME280;37881;48.024;8.774;2023-04-24T02:12:15;92990.69;;;7.66;100.00
51829;BME280;37881;48.024;8.774;2023-04-24T02:14:43;92993.06;;;7.64;100.00
51829;BME280;37881;48.024;8.774;2023-04-24T02:17:10;92987.47;;;7.71;100.00
51829;BME280;37881;48.024;8.774;2023-04-24T02:19:38;92990.69;;;7.66;100.00
51829;BME280;37881;48.024;8.774;2023-04-24T02:22:05;92991.53;;;7.63;100.00
51829;BME280;37881;48.024;8.774;2023-04-24T02:24:32;92980.25;;;7.61;100.00
51829;BME280;37881;48.024;8.774;2023-04-24T02:26:59;92986.84;;;7.64;100.00
51829;BME280;37881;48.024;8.774;2023-04-24T02:29:26;92991.53;;;7.63;100.00
51829;BME280;37881;48.024;8.774;2023-04-24T02:31:53;92993.56;;;7.59;100.00
51829;BME280;37881;48.024;8.774;2023-04-24T02:34:19;92990.53;;;7.53;100.00
51829;BME280;37881;48.024;8.774;2023-04-24T02:36:46;92982.41;;;7.50;100.00
51829;BME280;37881;48.024;8.774;2023-04-24T02:39:13;92981.59;;;7.53;100.00
51829;BME280;37881;48.024;8.774;2023-04-24T02:41:40;92979.63;;;7.53;100.00
51829;BME280;37881;48.024;8.774;2023-04-24T02:44:07;92989.91;;;7.46;100.00
51829;BME280;37881;48.024;8.774;2023-04-24T02:46:33;92991.81;;;7.49;100.00
51829;BME280;37881;48.024;8.774;2023-04-24T02:49:00;92989.44;;;7.51;100.00
51829;BME280;37881;48.024;8.774;2023-04-24T02:51:27;92992.78;;;7.58;100.00
51829;BME280;37881;48.024;8.774;2023-04-24T02:53:53;92989.22;;;7.62;100.00
51829;BME280;37881;48.024;8.774;2023-04-24T02:56:20;92982.63;;;7.59;100.00
51829;BME280;37881;48.024;8.774;2023-04-24T02:58:47;92980.78;;;7.52;100.00
51829;BME280;37881;48.024;8.774;2023-04-24T03:01:13;92979.69;;;7.50;100.00
51829;BME280;37881;48.024;8.774;2023-04-24T03:03:41;92967.13;;;7.52;100.00
51829;BME280;37881;48.024;8.774;2023-04-24T03:06:08;92957.84;;;7.50;100.00
51829;BME280;37881;48.024;8.774;2023-04-24T03:08:34;92972.94;;;7.54;100.00
51829;BME280;37881;48.024;8.774;2023-04-24T03:11:02;92970.44;;;7.44;100.00
51829;BME280;37881;48.024;8.774;2023-04-24T03:13:29;92976.94;;;7.50;100.00
51829;BME280;37881;48.024;8.774;2023-04-24T03:15:56;92976.88;;;7.53;100.00
51829;BME280;37881;48.024;8.774;2023-04-24T03:18:22;92980.88;;;7.49;100.00
51829;BME280;37881;48.024;8.774;2023-04-24T03:20:49;92982.06;;;7.48;100.00
51829;BME280;37881;48.024;8.774;2023-04-24T03:23:16;92981.75;;;7.42;100.00
51829;BME280;37881;48.024;8.774;2023-04-24T03:25:43;92987.50;;;7.48;100.00
51829;BME280;37881;48.024;8.774;2023-04-24T03:28:09;92978.97;;;7.46;100.00
51829;BME280;37881;48.024;8.774;2023-04-24T03:30:36;92983.06;;;7.57;100.00
51829;BME280;37881;48.024;8.774;2023-04-24T03:33:03;92985.50;;;7.52;100.00
51829;BME280;37881;48.024;8.774;2023-04-24T03:35:30;92977.72;;;7.50;100.00
51829;BME280;37881;48.024;8.774;2023-04-24T03:37:56;92988.91;;;7.56;100.00
51829;BME280;37881;48.024;8.774;2023-04-24T03:40:23;92978.41;;;7.54;100.00
51829;BME280;37881;48.024;8.774;2023-04-24T03:42:50;92978.56;;;7.47;100.00
51829;BME280;37881;48.024;8.774;2023-04-24T03:45:17;92975.94;;;7.40;100.00
51829;BME280;37881;48.024;8.774;2023-04-24T03:47:43;92986.47;;;7.42;100.00
51829;BME280;37881;48.024;8.774;2023-04-24T03:50:10;92984.16;;;7.40;100.00
51829;BME280;37881;48.024;8.774;2023-04-24T03:52:38;92984.72;;;7.51;100.00
51829;BME280;37881;48.024;8.774;2023-04-24T03:55:05;92983.88;;;7.54;100.00
51829;BME280;37881;48.024;8.774;2023-04-24T03:57:32;92972.94;;;7.54;100.00
51829;BME280;37881;48.024;8.774;2023-04-24T03:59:59;92973.47;;;7.49;100.00
51829;BME280;37881;48.024;8.774;2023-04-24T04:02:26;92969.88;;;7.52;100.00
51829;BME280;37881;48.024;8.774;2023-04-24T04:04:53;92970.03;;;7.45;100.00
51829;BME280;37881;48.024;8.774;2023-04-24T04:07:20;92970.13;;;7.38;100.00
51829;BME280;37881;48.024;8.774;2023-04-24T04:09:46;92974.50;;;7.35;100.00
51829;BME280;37881;48.024;8.774;2023-04-24T04:12:13;92979.25;;;7.31;100.00
51829;BME280;37881;48.024;8.774;2023-04-24T04:14:40;92981.81;;;7.18;100.00
51829;BME280;37881;48.024;8.774;2023-04-24T04:17:06;92976.28;;;7.22;100.00
51829;BME280;37881;48.024;8.774;2023-04-24T04:19:33;92980.84;;;7.29;100.00
51829;BME280;37881;48.024;8.774;2023-04-24T04:22:00;92972.66;;;7.29;100.00
51829;BME280;37881;48.024;8.774;2023-04-24T04:24:26;92974.97;;;7.30;100.00
51829;BME280;37881;48.024;8.774;2023-04-24T04:26:53;92979.34;;;7.24;100.00
51829;BME280;37881;48.024;8.774;2023-04-24T04:29:23;92969.69;;;7.19;100.00
51829;BME280;37881;48.024;8.774;2023-04-24T04:31:50;92976.47;;;7.11;100.00
51829;BME280;37881;48.024;8.774;2023-04-24T04:34:17;92976.88;;;7.10;100.00
51829;BME280;37881;48.024;8.774;2023-04-24T04:36:44;92990.88;;;7.12;100.00
51829;BME280;37881;48.024;8.774;2023-04-24T04:39:12;93004.06;;;7.17;100.00
51829;BME280;37881;48.024;8.774;2023-04-24T04:41:41;93004.09;;;7.13;100.00
51829;BME280;37881;48.024;8.774;2023-04-24T04:44:08;93014.81;;;7.24;100.00
51829;BME280;37881;48.024;8.774;2023-04-24T04:46:35;93016.09;;;7.19;100.00
51829;BME280;37881;48.024;8.774;2023-04-24T04:49:03;93023.09;;;7.20;100.00
51829;BME280;37881;48.024;8.774;2023-04-24T04:51:30;93034.00;;;7.20;100.00
51829;BME280;37881;48.024;8.774;2023-04-24T04:53:57;93038.88;;;7.33;100.00
51829;BME280;37881;48.024;8.774;2023-04-24T04:56:24;93030.63;;;7.36;100.00
51829;BME280;37881;48.024;8.774;2023-04-24T04:58:51;93031.91;;;7.28;100.00
51829;BME280;37881;48.024;8.774;2023-04-24T05:01:17;93030.34;;;7.31;100.00
51829;BME280;37881;48.024;8.774;2023-04-24T05:03:44;93047.72;;;7.17;100.00
51829;BME280;37881;48.024;8.774;2023-04-24T05:06:11;93045.34;;;7.19;100.00
51829;BME280;37881;48.024;8.774;2023-04-24T05:08:38;93047.22;;;7.22;100.00
51829;BME280;37881;48.024;8.774;2023-04-24T05:11:05;93050.03;;;7.18;100.00
51829;BME280;37881;48.024;8.774;2023-04-24T05:13:32;93047.75;;;7.13;100.00
51829;BME280;37881;48.024;8.774;2023-04-24T05:16:06;93067.41;;;7.05;100.00
51829;BME280;37881;48.024;8.774;2023-04-24T05:18:33;93062.06;;;7.21;100.00
51829;BME280;37881;48.024;8.774;2023-04-24T05:21:00;93075.47;;;7.35;100.00
51829;BME280;37881;48.024;8.774;2023-04-24T05:23:27;93076.53;;;7.42;100.00
51829;BME280;37881;48.024;8.774;2023-04-24T05:25:54;93083.91;;;7.45;100.00
51829;BME280;37881;48.024;8.774;2023-04-24T05:28:21;93085.59;;;7.58;100.00
51829;BME280;37881;48.024;8.774;2023-04-24T05:30:48;93085.13;;;7.64;100.00
51829;BME280;37881;48.024;8.774;2023-04-24T05:33:14;93092.69;;;7.56;100.00
51829;BME280;37881;48.024;8.774;2023-04-24T05:35:41;93097.19;;;7.66;100.00
51829;BME280;37881;48.024;8.774;2023-04-24T05:38:16;93090.91;;;7.46;100.00
51829;BME280;37881;48.024;8.774;2023-04-24T05:40:45;93084.47;;;6.82;100.00
51829;BME280;37881;48.024;8.774;2023-04-24T05:43:12;93081.19;;;6.67;100.00
51829;BME280;37881;48.024;8.774;2023-04-24T05:45:39;93096.69;;;6.43;100.00
51829;BME280;37881;48.024;8.774;2023-04-24T05:48:06;93095.97;;;6.08;100.00
51829;BME280;37881;48.024;8.774;2023-04-24T05:50:33;93101.31;;;6.15;100.00
51829;BME280;37881;48.024;8.774;2023-04-24T05:53:02;93100.13;;;6.50;100.00
51829;BME280;37881;48.024;8.774;2023-04-24T05:55:30;93103.28;;;6.45;100.00
51829;BME280;37881;48.024;8.774;2023-04-24T05:57:58;93107.50;;;6.19;100.00
51829;BME280;37881;48.024;8.774;2023-04-24T06:00:25;93109.81;;;6.51;100.00
51829;BME280;37881;48.024;8.774;2023-04-24T06:02:52;93102.25;;;6.93;100.00
51829;BME280;37881;48.024;8.774;2023-04-24T06:05:21;93106.84;;;7.24;100.00
51829;BME280;37881;48.024;8.774;2023-04-24T06:07:48;93107.88;;;8.00;100.00
51829;BME280;37881;48.024;8.774;2023-04-24T06:10:15;93105.03;;;8.28;100.00
51829;BME280;37881;48.024;8.774;2023-04-24T06:12:42;93107.41;;;7.38;100.00
51829;BME280;37881;48.024;8.774;2023-04-24T06:15:09;93106.19;;;8.07;100.00
51829;BME280;37881;48.024;8.774;2023-04-24T06:17:36;93091.72;;;8.70;100.00
51829;BME280;37881;48.024;8.774;2023-04-24T06:20:03;93089.75;;;11.63;100.00
51829;BME280;37881;48.024;8.774;2023-04-24T06:22:32;93085.34;;;11.78;100.00
51829;BME280;37881;48.024;8.774;2023-04-24T06:24:59;93096.56;;;13.97;100.00
51829;BME280;37881;48.024;8.774;2023-04-24T06:27:26;93094.75;;;14.49;98.61
51829;BME280;37881;48.024;8.774;2023-04-24T06:29:53;93090.59;;;13.08;95.98
51829;BME280;37881;48.024;8.774;2023-04-24T06:32:22;93095.22;;;12.89;100.00
51829;BME280;37881;48.024;8.774;2023-04-24T06:34:51;93085.41;;;14.47;94.16
51829;BME280;37881;48.024;8.774;2023-04-24T06:37:20;93078.72;;;15.51;87.98
51829;BME280;37881;48.024;8.774;2023-04-24T06:39:47;93074.84;;;11.12;100.00
51829;BME280;37881;48.024;8.774;2023-04-24T06:42:14;93081.78;;;10.78;100.00
51829;BME280;37881;48.024;8.774;2023-04-24T06:44:40;93085.50;;;13.88;100.00
51829;BME280;37881;48.024;8.774;2023-04-24T06:47:08;93086.25;;;15.08;93.98
51829;BME280;37881;48.024;8.774;2023-04-24T06:49:36;93090.78;;;16.60;80.00
51829;BME280;37881;48.024;8.774;2023-04-24T06:52:03;93091.44;;;15.58;91.15
51829;BME280;37881;48.024;8.774;2023-04-24T06:54:30;93099.97;;;10.72;100.00
51829;BME280;37881;48.024;8.774;2023-04-24T06:56:57;93105.75;;;10.62;100.00
51829;BME280;37881;48.024;8.774;2023-04-24T06:59:24;93104.50;;;10.79;100.00
51829;BME280;37881;48.024;8.774;2023-04-24T07:01:51;93118.16;;;13.17;100.00
51829;BME280;37881;48.024;8.774;2023-04-24T07:04:21;93100.84;;;15.00;88.99
51829;BME280;37881;48.024;8.774;2023-04-24T07:06:48;93096.63;;;13.56;86.72
51829;BME280;37881;48.024;8.774;2023-04-24T07:09:18;93099.38;;;16.23;78.02
51829;BME280;37881;48.024;8.774;2023-04-24T07:11:45;93108.44;;;16.47;68.83
51829;BME280;37881;48.024;8.774;2023-04-24T07:14:13;93098.06;;;20.15;53.79
51829;BME280;37881;48.024;8.774;2023-04-24T07:16:40;93101.50;;;19.99;52.67
51829;BME280;37881;48.024;8.774;2023-04-24T07:19:06;93109.19;;;18.73;48.73
51829;BME280;37881;48.024;8.774;2023-04-24T07:21:33;93110.25;;;18.34;49.41
51829;BME280;37881;48.024;8.774;2023-04-24T07:24:00;93125.63;;;16.51;54.73
51829;BME280;37881;48.024;8.774;2023-04-24T07:26:29;93130.63;;;15.56;58.73
51829;BME280;37881;48.024;8.774;2023-04-24T07:28:56;93141.66;;;14.40;56.50
51829;BME280;37881;48.024;8.774;2023-04-24T07:31:23;93127.56;;;14.47;59.50
51829;BME280;37881;48.024;8.774;2023-04-24T07:33:49;93144.47;;;13.81;65.27
51829;BME280;37881;48.024;8.774;2023-04-24T07:36:16;93137.41;;;13.71;63.77
51829;BME280;37881;48.024;8.774;2023-04-24T07:38:46;93141.59;;;12.91;70.00
51829;BME280;37881;48.024;8.774;2023-04-24T07:41:13;93144.19;;;11.93;72.91
51829;BME280;37881;48.024;8.774;2023-04-24T07:43:41;93149.53;;;12.10;77.37
51829;BME280;37881;48.024;8.774;2023-04-24T07:46:08;93150.31;;;11.97;75.23
51829;BME280;37881;48.024;8.774;2023-04-24T07:48:36;93167.25;;;10.18;86.40
51829;BME280;37881;48.024;8.774;2023-04-24T07:51:03;93167.13;;;10.97;86.32
51829;BME280;37881;48.024;8.774;2023-04-24T07:53:30;93167.63;;;10.79;89.25
51829;BME280;37881;48.024;8.774;2023-04-24T07:55:56;93175.69;;;10.99;91.42
51829;BME280;37881;48.024;8.774;2023-04-24T07:58:23;93171.53;;;11.58;84.70
51829;BME280;37881;48.024;8.774;2023-04-24T08:00:50;93183.88;;;11.54;84.15
51829;BME280;37881;48.024;8.774;2023-04-24T08:03:17;93186.59;;;12.05;80.93
51829;BME280;37881;48.024;8.774;2023-04-24T08:05:46;93183.81;;;12.88;76.32
51829;BME280;37881;48.024;8.774;2023-04-24T08:08:13;93197.25;;;14.02;71.12
51829;BME280;37881;48.024;8.774;2023-04-24T08:10:40;93192.81;;;17.54;57.18
51829;BME280;37881;48.024;8.774;2023-04-24T08:13:07;93182.75;;;18.57;51.77
51829;BME280;37881;48.024;8.774;2023-04-24T08:15:34;93195.78;;;16.82;54.34
51829;BME280;37881;48.024;8.774;2023-04-24T08:18:01;93207.03;;;17.17;55.24
51829;BME280;37881;48.024;8.774;2023-04-24T08:20:28;93205.72;;;17.12;52.20
51829;BME280;37881;48.024;8.774;2023-04-24T08:22:55;93208.84;;;16.57;51.42
51829;BME280;37881;48.024;8.774;2023-04-24T08:25:23;93215.97;;;16.73;52.80
51829;BME280;37881;48.024;8.774;2023-04-24T08:27:51;93219.59;;;17.42;45.69
51829;BME280;37881;48.024;8.774;2023-04-24T08:30:18;93208.00;;;15.75;47.80
51829;BME280;37881;48.024;8.774;2023-04-24T08:32:44;93233.94;;;14.80;51.55
51829;BME280;37881;48.024;8.774;2023-04-24T08:35:11;93238.22;;;14.71;50.35
51829;BME280;37881;48.024;8.774;2023-04-24T08:37:38;93230.03;;;17.47;45.36
51829;BME280;37881;48.024;8.774;2023-04-24T08:40:12;93245.25;;;15.55;47.95
51829;BME280;37881;48.024;8.774;2023-04-24T08:42:41;93257.13;;;13.83;52.80
51829;BME280;37881;48.024;8.774;2023-04-24T08:45:10;93246.16;;;14.51;49.14
51829;BME280;37881;48.024;8.774;2023-04-24T08:47:38;93251.88;;;14.16;52.65
51829;BME280;37881;48.024;8.774;2023-04-24T08:50:07;93251.97;;;17.75;44.50
51829;BME280;37881;48.024;8.774;2023-04-24T08:52:34;93239.78;;;17.57;41.58
51829;BME280;37881;48.024;8.774;2023-04-24T08:55:01;93230.66;;;16.64;44.10
51829;BME280;37881;48.024;8.774;2023-04-24T08:57:29;93237.56;;;19.12;40.01
51829;BME280;37881;48.024;8.774;2023-04-24T08:59:58;93229.06;;;19.68;37.76
51829;BME280;37881;48.024;8.774;2023-04-24T09:02:25;93228.59;;;21.20;34.39
51829;BME280;37881;48.024;8.774;2023-04-24T09:04:53;93226.81;;;20.68;35.49
51829;BME280;37881;48.024;8.774;2023-04-24T09:07:22;93230.34;;;20.63;34.23
51829;BME280;37881;48.024;8.774;2023-04-24T09:09:51;93227.50;;;17.20;38.65
51829;BME280;37881;48.024;8.774;2023-04-24T09:12:18;93228.16;;;15.66;40.44
51829;BME280;37881;48.024;8.774;2023-04-24T09:14:45;93243.97;;;13.33;49.21
51829;BME280;37881;48.024;8.774;2023-04-24T09:17:12;93246.84;;;14.24;47.42
51829;BME280;37881;48.024;8.774;2023-04-24T09:19:40;93257.31;;;13.97;45.01
51829;BME280;37881;48.024;8.774;2023-04-24T09:22:07;93263.97;;;12.55;48.13
51829;BME280;37881;48.024;8.774;2023-04-24T09:24:34;93270.16;;;12.46;48.22
51829;BME280;37881;48.024;8.774;2023-04-24T09:27:02;93275.94;;;12.74;47.17
51829;BME280;37881;48.024;8.774;2023-04-24T09:29:28;93281.53;;;12.23;48.33
51829;BME280;37881;48.024;8.774;2023-04-24T09:31:55;93274.75;;;12.62;48.83
51829;BME280;37881;48.024;8.774;2023-04-24T09:34:24;93280.25;;;12.97;46.53
51829;BME280;37881;48.024;8.774;2023-04-24T09:36:52;93286.38;;;13.14;46.99
51829;BME280;37881;48.024;8.774;2023-04-24T09:39:19;93280.66;;;11.32;52.24
51829;BME280;37881;48.024;8.774;2023-04-24T09:41:53;93313.41;;;11.39;52.92
51829;BME280;37881;48.024;8.774;2023-04-24T09:44:23;93309.66;;;11.88;52.87
51829;BME280;37881;48.024;8.774;2023-04-24T09:46:53;93325.69;;;11.77;52.79
51829;BME280;37881;48.024;8.774;2023-04-24T09:49:28;93313.22;;;11.47;54.34
51829;BME280;37881;48.024;8.774;2023-04-24T09:52:05;93331.41;;;10.82;58.12
51829;BME280;37881;48.024;8.774;2023-04-24T09:54:33;93332.88;;;10.70;59.09
51829;BME280;37881;48.024;8.774;2023-04-24T09:57:00;93324.78;;;10.67;59.11
51829;BME280;37881;48.024;8.774;2023-04-24T09:59:27;93331.19;;;10.44;60.04
51829;BME280;37881;48.024;8.774;2023-04-24T10:01:54;93327.06;;;10.52;59.90
51829;BME280;37881;48.024;8.774;2023-04-24T10:04:22;93336.19;;;11.11;58.58
51829;BME280;37881;48.024;8.774;2023-04-24T10:06:53;93340.19;;;10.77;60.09
51829;BME280;37881;48.024;8.774;2023-04-24T10:09:23;93336.84;;;10.69;61.23
51829;BME280;37881;48.024;8.774;2023-04-24T10:11:51;93346.69;;;10.83;61.48
51829;BME280;37881;48.024;8.774;2023-04-24T10:14:22;93355.84;;;11.09;59.53
51829;BME280;37881;48.024;8.774;2023-04-24T10:16:50;93339.50;;;11.48;59.23
51829;BME280;37881;48.024;8.774;2023-04-24T10:19:19;93334.81;;;11.61;58.49
51829;BME280;37881;48.024;8.774;2023-04-24T10:21:46;93331.25;;;11.48;58.48
51829;BME280;37881;48.024;8.774;2023-04-24T10:24:15;93339.88;;;11.04;60.07
51829;BME280;37881;48.024;8.774;2023-04-24T10:26:43;93336.19;;;11.53;58.64
51829;BME280;37881;48.024;8.774;2023-04-24T10:29:12;93337.59;;;11.87;57.40
51829;BME280;37881;48.024;8.774;2023-04-24T10:31:39;93339.09;;;11.75;58.11
51829;BME280;37881;48.024;8.774;2023-04-24T10:34:07;93342.25;;;12.28;57.04
51829;BME280;37881;48.024;8.774;2023-04-24T10:36:35;93336.72;;;14.65;49.95
51829;BME280;37881;48.024;8.774;2023-04-24T10:39:06;93329.25;;;15.95;46.87
51829;BME280;37881;48.024;8.774;2023-04-24T10:41:37;93339.09;;;15.13;47.91
51829;BME280;37881;48.024;8.774;2023-04-24T10:44:08;93343.59;;;13.32;48.70
51829;BME280;37881;48.024;8.774;2023-04-24T10:46:37;93343.09;;;13.11;49.66
51829;BME280;37881;48.024;8.774;2023-04-24T10:49:07;93337.66;;;12.98;49.38
51829;BME280;37881;48.024;8.774;2023-04-24T10:51:49;93336.19;;;13.07;52.55
51829;BME280;37881;48.024;8.774;2023-04-24T10:54:27;93343.59;;;13.32;48.92
51829;BME280;37881;48.024;8.774;2023-04-24T11:00:09;93347.03;;;12.88;49.70
51829;BME280;37881;48.024;8.774;2023-04-24T11:02:39;93351.72;;;14.64;46.70
51829;BME280;37881;48.024;8.774;2023-04-24T11:05:07;93365.75;;;14.79;45.82
51829;BME280;37881;48.024;8.774;2023-04-24T11:08:15;93353.38;;;15.11;44.54
51829;BME280;37881;48.024;8.774;2023-04-24T11:10:47;93346.97;;;13.71;48.78
51829;BME280;37881;48.024;8.774;2023-04-24T11:13:25;93346.00;;;13.65;47.53
51829;BME280;37881;48.024;8.774;2023-04-24T11:18:51;93355.19;;;12.92;50.59
51829;BME280;37881;48.024;8.774;2023-04-24T11:21:22;93348.94;;;12.78;49.42
51829;BME280;37881;48.024;8.774;2023-04-24T11:23:49;93356.88;;;13.11;50.62
51829;BME280;37881;48.024;8.774;2023-04-24T11:26:21;93346.88;;;12.31;49.54
51829;BME280;37881;48.024;8.774;2023-04-24T11:28:50;93353.19;;;13.27;47.37
51829;BME280;37881;48.024;8.774;2023-04-24T11:31:36;93350.00;;;12.94;48.25
51829;BME280;37881;48.024;8.774;2023-04-24T11:34:11;93351.38;;;13.11;48.11
51829;BME280;37881;48.024;8.774;2023-04-24T11:36:39;93346.53;;;13.50;46.99
51829;BME280;37881;48.024;8.774;2023-04-24T11:39:06;93345.09;;;13.11;46.93
51829;BME280;37881;48.024;8.774;2023-04-24T11:41:33;93348.56;;;13.81;46.51
51829;BME280;37881;48.024;8.774;2023-04-24T11:44:00;93352.66;;;14.30;43.67
51829;BME280;37881;48.024;8.774;2023-04-24T11:46:28;93350.09;;;13.82;45.31
51829;BME280;37881;48.024;8.774;2023-04-24T11:48:57;93345.66;;;14.07;44.04
51829;BME280;37881;48.024;8.774;2023-04-24T11:51:25;93359.59;;;14.12;45.19
51829;BME280;37881;48.024;8.774;2023-04-24T11:54:01;93360.38;;;13.25;43.98
51829;BME280;37881;48.024;8.774;2023-04-24T11:56:30;93366.84;;;13.66;44.32
51829;BME280;37881;48.024;8.774;2023-04-24T11:58:56;93357.34;;;12.36;48.36
51829;BME280;37881;48.024;8.774;2023-04-24T12:01:23;93366.53;;;13.29;46.86
51829;BME280;37881;48.024;8.774;2023-04-24T12:03:50;93374.41;;;13.52;44.24
51829;BME280;37881;48.024;8.774;2023-04-24T12:06:26;93366.31;;;13.58;45.26
51829;BME280;37881;48.024;8.774;2023-04-24T12:08:52;93381.50;;;14.38;44.34
51829;BME280;37881;48.024;8.774;2023-04-24T12:11:30;93372.44;;;13.05;45.76
51829;BME280;37881;48.024;8.774;2023-04-24T12:13:56;93384.97;;;12.33;47.27
51829;BME280;37881;48.024;8.774;2023-04-24T12:16:25;93374.50;;;12.53;47.01
51829;BME280;37881;48.024;8.774;2023-04-24T12:18:52;93388.59;;;12.43;48.14
51829;BME280;37881;48.024;8.774;2023-04-24T12:21:21;93389.69;;;12.45;48.43
51829;BME280;37881;48.024;8.774;2023-04-24T12:23:48;93407.97;;;12.39;48.09
51829;BME280;37881;48.024;8.774;2023-04-24T12:26:19;93397.41;;;12.25;49.18
51829;BME280;37881;48.024;8.774;2023-04-24T12:28:47;93383.50;;;12.92;48.55
51829;BME280;37881;48.024;8.774;2023-04-24T12:31:16;93396.16;;;13.72;47.46
51829;BME280;37881;48.024;8.774;2023-04-24T12:33:43;93389.38;;;12.56;48.49
51829;BME280;37881;48.024;8.774;2023-04-24T12:36:11;93400.56;;;12.23;48.96
51829;BME280;37881;48.024;8.774;2023-04-24T12:38:39;93385.50;;;12.53;49.12
51829;BME280;37881;48.024;8.774;2023-04-24T12:41:12;93374.06;;;12.55;49.09
51829;BME280;37881;48.024;8.774;2023-04-24T12:43:53;93384.41;;;12.64;50.04
51829;BME280;37881;48.024;8.774;2023-04-24T12:46:20;93373.19;;;12.32;50.77
51829;BME280;37881;48.024;8.774;2023-04-24T12:48:48;93384.84;;;12.49;50.43
51829;BME280;37881;48.024;8.774;2023-04-24T12:51:15;93371.38;;;11.45;50.75
51829;BME280;37881;48.024;8.774;2023-04-24T12:53:41;93370.69;;;11.83;51.11
51829;BME280;37881;48.024;8.774;2023-04-24T12:56:08;93391.88;;;12.12;51.03
51829;BME280;37881;48.024;8.774;2023-04-24T12:58:35;93370.50;;;12.03;48.96
51829;BME280;37881;48.024;8.774;2023-04-24T13:01:02;93369.75;;;11.90;49.45
51829;BME280;37881;48.024;8.774;2023-04-24T13:03:29;93372.06;;;11.91;48.99
51829;BME280;37881;48.024;8.774;2023-04-24T13:05:56;93376.69;;;12.07;49.74
51829;BME280;37881;48.024;8.774;2023-04-24T13:08:22;93364.06;;;12.23;49.40
51829;BME280;37881;48.024;8.774;2023-04-24T13:10:49;93377.56;;;12.17;49.84